Time;durP1;ratioP1;P1;durP2;ratioP2;P2;SDS_P1;SDS_P2;PMS_P1;PMS_P2;Temp;Humidity;BMP_temperature;BMP_pressure;BME280_temperature;BME280_humidity;BME280_pressure;Samples;Min_cycle;Max_cycle;Signal;HPM_P1;HPM_P2
2023/04/16 00:00:30;;;;;;;10.33;9.27;;;14.00;69.50;;;;;;5016808;28;20268;-50
2023/04/16 00:02:56;;;;;;;9.90;9.00;;;13.90;69.70;;;;;;5007351;28;20194;-51
2023/04/16 00:05:21;;;;;;;10.63;9.63;;;13.70;70.20;;;;;;5011515;28;20268;-49
2023/04/16 00:07:47;;;;;;;10.50;9.40;;;13.70;70.80;;;;;;5013501;28;20198;-49
2023/04/16 00:10:13;;;;;;;8.97;8.07;;;13.70;70.80;;;;;;5010107;28;20201;-49
2023/04/16 00:12:38;;;;;;;9.90;8.90;;;13.70;70.40;;;;;;5009996;28;20209;-49
2023/04/16 00:15:04;;;;;;;9.97;8.93;;;13.70;70.60;;;;;;5000950;28;20210;-49
2023/04/16 00:17:30;;;;;;;11.23;10.13;;;13.70;71.10;;;;;;5013936;28;20194;-50
2023/04/16 00:19:55;;;;;;;11.60;10.50;;;13.60;71.00;;;;;;5013881;28;20790;-49
2023/04/16 00:22:21;;;;;;;10.17;9.13;;;13.60;71.10;;;;;;4999313;28;20563;-50
2023/04/16 00:24:46;;;;;;;9.63;8.63;;;13.60;71.00;;;;;;5013365;28;20247;-49
2023/04/16 00:27:12;;;;;;;10.00;9.00;;;13.60;70.70;;;;;;5002482;28;20190;-50
2023/04/16 00:29:38;;;;;;;10.43;9.33;;;13.70;70.80;;;;;;5010981;28;20190;-49
2023/04/16 00:32:03;;;;;;;9.93;8.93;;;13.70;70.70;;;;;;5004485;28;20657;-49
2023/04/16 00:34:29;;;;;;;11.00;9.90;;;13.60;70.50;;;;;;5012257;28;20198;-49
2023/04/16 00:36:54;;;;;;;11.03;9.93;;;13.70;71.50;;;;;;5012020;28;20645;-49
2023/04/16 00:39:20;;;;;;;11.03;10.03;;;13.70;70.60;;;;;;5009690;28;20201;-49
2023/04/16 00:41:46;;;;;;;9.60;8.70;;;13.70;70.30;;;;;;5010544;28;20225;-51
2023/04/16 00:44:11;;;;;;;10.77;9.67;;;13.70;70.50;;;;;;5010023;28;20220;-49
2023/04/16 00:46:37;;;;;;;11.53;10.13;;;13.70;70.50;;;;;;5005887;28;20198;-50
2023/04/16 00:49:03;;;;;;;10.60;9.60;;;13.80;70.50;;;;;;4998391;28;20320;-49
2023/04/16 00:51:30;;;;;;;10.47;9.37;;;13.80;70.30;;;;;;5003061;28;20484;-51
2023/04/16 00:53:56;;;;;;;10.07;8.60;;;13.90;70.00;;;;;;5005139;28;20295;-50
2023/04/16 00:56:23;;;;;;;10.30;9.20;;;13.90;69.60;;;;;;5001421;28;20444;-51
2023/04/16 00:58:49;;;;;;;9.80;8.80;;;13.90;69.20;;;;;;5004620;28;20451;-51
2023/04/16 01:01:15;;;;;;;10.60;9.50;;;14.00;69.20;;;;;;5004695;28;20484;-51
2023/04/16 01:03:45;;;;;;;9.90;8.90;;;14.00;69.20;;;;;;5003751;28;20197;-54
2023/04/16 01:06:11;;;;;;;8.83;8.03;;;14.00;69.10;;;;;;4998658;28;20197;-50
2023/04/16 01:08:38;;;;;;;9.20;8.30;;;14.00;70.10;;;;;;5007650;28;20440;-51
2023/04/16 01:11:03;;;;;;;9.80;8.90;;;13.90;69.40;;;;;;5002769;28;20447;-49
2023/04/16 01:13:29;;;;;;;9.40;8.50;;;13.80;69.80;;;;;;4996007;28;20442;-50
2023/04/16 01:15:55;;;;;;;10.00;9.00;;;13.70;70.30;;;;;;5001855;28;20198;-50
2023/04/16 01:18:22;;;;;;;8.97;8.10;;;13.60;70.80;;;;;;5004527;28;20499;-49
2023/04/16 01:20:49;;;;;;;9.20;8.30;;;13.60;71.10;;;;;;5003737;28;20570;-49
2023/04/16 01:23:14;;;;;;;9.80;8.87;;;13.60;70.80;;;;;;5007458;28;20681;-49
2023/04/16 01:25:40;;;;;;;8.37;7.57;;;13.60;71.10;;;;;;5007672;28;20543;-48
2023/04/16 01:28:06;;;;;;;8.50;7.70;;;13.70;70.70;;;;;;5007639;28;20194;-49
2023/04/16 01:30:32;;;;;;;8.43;7.63;;;13.70;70.70;;;;;;5003520;28;20276;-50
2023/04/16 01:32:58;;;;;;;7.90;7.10;;;13.80;70.30;;;;;;5001326;28;20445;-51
2023/04/16 01:35:24;;;;;;;8.60;7.70;;;13.90;70.00;;;;;;5006754;28;20196;-51
2023/04/16 01:37:50;;;;;;;9.03;8.10;;;13.80;69.80;;;;;;5005863;28;20261;-50
2023/04/16 01:40:17;;;;;;;8.27;7.47;;;13.80;70.10;;;;;;5003987;28;20841;-49
2023/04/16 01:42:42;;;;;;;9.53;8.60;;;13.80;70.10;;;;;;5002737;28;20449;-49
2023/04/16 01:45:08;;;;;;;8.80;8.00;;;13.70;70.10;;;;;;5000916;28;20445;-54
2023/04/16 01:47:34;;;;;;;9.23;8.33;;;13.60;70.70;;;;;;5001526;28;20288;-49
2023/04/16 01:50:00;;;;;;;8.77;7.87;;;13.50;71.00;;;;;;4999590;28;20456;-51
2023/04/16 01:52:25;;;;;;;7.70;7.00;;;13.20;72.00;;;;;;4998932;28;20199;-49
2023/04/16 01:54:51;;;;;;;8.50;7.70;;;13.30;71.70;;;;;;5004903;28;20233;-53
2023/04/16 01:57:17;;;;;;;8.00;7.20;;;13.30;71.90;;;;;;5004886;28;20194;-49
2023/04/16 01:59:42;;;;;;;7.07;6.47;;;13.30;72.00;;;;;;5004073;28;20195;-53
2023/04/16 02:02:10;;;;;;;8.10;7.30;;;13.40;71.80;;;;;;5006283;28;20269;-49
2023/04/16 02:04:40;;;;;;;7.90;6.67;;;13.30;72.20;;;;;;5002850;28;20241;-50
2023/04/16 02:07:07;;;;;;;7.50;6.70;;;13.40;71.90;;;;;;5007860;28;20433;-50
2023/04/16 02:09:37;;;;;;;7.37;6.73;;;13.30;72.20;;;;;;4999147;28;20864;-51
2023/04/16 02:12:03;;;;;;;7.93;7.23;;;13.30;72.60;;;;;;5002139;28;20441;-50
2023/04/16 02:14:32;;;;;;;8.20;7.40;;;13.30;72.30;;;;;;5003232;28;20860;-49
2023/04/16 02:16:59;;;;;;;7.83;7.13;;;13.40;72.00;;;;;;5011792;28;20201;-52
2023/04/16 02:19:25;;;;;;;7.30;6.63;;;13.50;71.80;;;;;;5010144;28;20919;-51
2023/04/16 02:21:52;;;;;;;7.43;6.63;;;13.40;71.50;;;;;;5006881;28;20875;-49
2023/04/16 02:24:20;;;;;;;7.57;6.87;;;13.40;71.60;;;;;;5012005;28;20431;-49
2023/04/16 02:26:47;;;;;;;7.20;6.50;;;13.40;71.90;;;;;;5006683;28;20495;-49
2023/04/16 02:29:12;;;;;;;7.00;6.30;;;13.20;72.50;;;;;;5007302;28;20445;-50
2023/04/16 02:31:38;;;;;;;8.20;7.40;;;13.10;73.30;;;;;;5010054;28;20440;-50
2023/04/16 02:34:04;;;;;;;7.33;6.63;;;13.20;73.10;;;;;;5008799;28;20816;-49
2023/04/16 02:36:31;;;;;;;8.10;7.30;;;13.30;72.10;;;;;;5009113;28;20190;-49
2023/04/16 02:38:57;;;;;;;8.03;7.33;;;13.30;72.50;;;;;;5008920;28;20862;-49
2023/04/16 02:41:23;;;;;;;7.30;6.60;;;13.30;72.40;;;;;;5007904;28;20510;-51
2023/04/16 02:43:48;;;;;;;9.20;7.53;;;13.30;72.40;;;;;;5009700;28;20916;-49
2023/04/16 02:46:14;;;;;;;8.20;7.50;;;13.40;72.10;;;;;;5009861;28;20285;-49
2023/04/16 02:48:39;;;;;;;7.77;7.00;;;13.50;71.60;;;;;;5007988;28;20197;-49
2023/04/16 02:51:05;;;;;;;11.73;7.93;;;13.50;71.40;;;;;;5004586;28;20190;-49
2023/04/16 02:53:31;;;;;;;8.40;7.57;;;13.40;71.90;;;;;;5008961;28;20277;-50
2023/04/16 02:55:56;;;;;;;8.77;7.90;;;13.40;72.30;;;;;;5007967;28;20914;-53
2023/04/16 02:58:25;;;;;;;8.73;7.93;;;13.40;72.30;;;;;;5006292;28;20607;-51
2023/04/16 03:00:52;;;;;;;8.73;7.83;;;13.30;71.90;;;;;;5002824;28;20233;-49
2023/04/16 03:03:18;;;;;;;9.13;7.97;;;13.40;72.10;;;;;;5006275;28;20877;-49
2023/04/16 03:05:44;;;;;;;8.60;7.80;;;13.40;71.60;;;;;;5010913;28;20468;-50
2023/04/16 03:08:10;;;;;;;9.17;8.13;;;13.50;71.60;;;;;;5009366;28;20667;-49
2023/04/16 03:10:36;;;;;;;11.40;8.37;;;13.40;71.50;;;;;;4998589;28;20205;-51
2023/04/16 03:13:01;;;;;;;10.03;9.03;;;13.40;71.60;;;;;;4998897;28;20197;-50
2023/04/16 03:15:27;;;;;;;9.10;8.13;;;13.30;71.80;;;;;;5003958;28;21011;-49
2023/04/16 03:17:53;;;;;;;9.50;8.57;;;13.20;72.70;;;;;;5003861;28;20193;-53
2023/04/16 03:20:19;;;;;;;9.80;8.87;;;13.30;72.70;;;;;;5007387;28;20685;-50
2023/04/16 03:22:48;;;;;;;9.10;8.20;;;13.50;72.20;;;;;;5009338;28;20464;-49
2023/04/16 03:25:14;;;;;;;8.93;8.03;;;13.50;71.80;;;;;;5006012;28;20194;-49
2023/04/16 03:27:40;;;;;;;9.40;8.43;;;13.50;71.80;;;;;;5005713;28;20858;-50
2023/04/16 03:30:12;;;;;;;10.47;9.30;;;13.40;71.30;;;;;;4994694;28;20309;-48
2023/04/16 03:32:38;;;;;;;9.37;8.20;;;13.40;72.00;;;;;;5006346;28;20677;-50
2023/04/16 03:35:05;;;;;;;8.87;8.07;;;13.40;72.00;;;;;;5008509;28;20437;-49
2023/04/16 03:37:31;;;;;;;10.63;8.90;;;13.30;72.20;;;;;;5002225;28;20473;-50
2023/04/16 03:39:57;;;;;;;9.20;7.93;;;13.40;72.40;;;;;;5000966;28;21331;-49
2023/04/16 03:42:22;;;;;;;8.70;7.63;;;13.30;73.10;;;;;;4998049;28;20438;-49
2023/04/16 03:44:48;;;;;;;9.03;8.17;;;13.30;72.40;;;;;;5004035;28;20204;-50
2023/04/16 03:47:13;;;;;;;8.77;7.97;;;13.40;71.90;;;;;;5004654;28;20202;-49
2023/04/16 03:49:39;;;;;;;9.37;8.47;;;13.40;72.10;;;;;;4996300;28;20252;-55
2023/04/16 03:52:05;;;;;;;8.87;8.03;;;13.40;72.10;;;;;;5000391;28;20248;-49
2023/04/16 03:54:30;;;;;;;8.80;7.60;;;13.40;72.40;;;;;;5001468;28;20857;-53
2023/04/16 03:56:56;;;;;;;9.50;8.20;;;13.40;71.90;;;;;;5006341;28;20645;-50
2023/04/16 03:59:21;;;;;;;8.43;7.27;;;13.20;72.80;;;;;;5004450;28;20202;-49
2023/04/16 04:01:47;;;;;;;8.40;7.47;;;13.30;72.90;;;;;;5001924;28;20275;-49
2023/04/16 04:04:13;;;;;;;9.10;8.20;;;13.40;72.90;;;;;;5004672;28;20567;-49
2023/04/16 04:06:39;;;;;;;8.83;7.90;;;13.30;72.30;;;;;;5000197;28;20206;-49
2023/04/16 04:09:05;;;;;;;9.13;8.23;;;13.20;72.70;;;;;;5002379;28;20452;-52
2023/04/16 04:11:31;;;;;;;8.73;7.87;;;13.30;72.70;;;;;;5005365;28;20196;-50
2023/04/16 04:13:57;;;;;;;9.90;7.97;;;13.40;72.70;;;;;;5002073;28;20449;-50
2023/04/16 04:16:22;;;;;;;9.40;7.97;;;13.30;73.00;;;;;;5007946;28;20194;-48
2023/04/16 04:18:48;;;;;;;8.80;6.80;;;13.20;73.00;;;;;;5005748;28;20229;-50
2023/04/16 04:21:14;;;;;;;9.13;8.17;;;13.20;73.40;;;;;;5008578;28;20232;-53
2023/04/16 04:23:41;;;;;;;10.00;8.93;;;13.00;74.00;;;;;;5008205;28;20320;-49
2023/04/16 04:26:07;;;;;;;10.97;9.33;;;12.90;74.70;;;;;;5000575;28;20454;-53
2023/04/16 04:28:34;;;;;;;11.07;9.97;;;13.00;74.70;;;;;;4997530;28;20452;-49
2023/04/16 04:31:00;;;;;;;9.63;8.63;;;13.00;74.30;;;;;;5004314;28;20440;-52
2023/04/16 04:33:26;;;;;;;10.80;9.67;;;13.10;74.20;;;;;;5011166;28;20425;-53
2023/04/16 04:35:52;;;;;;;9.87;8.90;;;13.10;73.80;;;;;;5006713;28;20471;-51
2023/04/16 04:38:20;;;;;;;9.47;8.20;;;13.20;73.60;;;;;;5011459;28;20198;-49
2023/04/16 04:40:46;;;;;;;11.00;9.90;;;13.40;73.10;;;;;;5012176;28;20856;-49
2023/04/16 04:43:12;;;;;;;11.63;9.73;;;13.30;73.30;;;;;;5011141;28;20838;-53
2023/04/16 04:45:37;;;;;;;9.70;8.70;;;13.10;73.90;;;;;;5011078;28;20495;-55
2023/04/16 04:48:03;;;;;;;10.07;9.10;;;13.00;74.60;;;;;;5009344;28;20836;-50
2023/04/16 04:50:29;;;;;;;10.60;9.37;;;13.00;74.60;;;;;;5006828;28;20630;-50
2023/04/16 04:52:55;;;;;;;11.43;9.93;;;13.00;74.60;;;;;;4998235;28;20195;-53
2023/04/16 04:55:20;;;;;;;11.63;9.87;;;13.00;74.50;;;;;;5007678;28;20561;-49
2023/04/16 04:57:46;;;;;;;10.50;9.03;;;13.10;74.20;;;;;;5009952;28;20249;-53
2023/04/16 05:00:11;;;;;;;10.47;9.47;;;13.10;74.20;;;;;;5007645;28;20590;-53
2023/04/16 05:02:37;;;;;;;11.80;9.67;;;13.20;73.90;;;;;;5004956;28;20197;-53
2023/04/16 05:05:06;;;;;;;12.13;10.97;;;13.20;73.70;;;;;;5010264;28;20968;-53
2023/04/16 05:07:31;;;;;;;10.97;9.33;;;13.10;73.80;;;;;;5006800;28;20199;-50
2023/04/16 05:09:57;;;;;;;11.83;9.47;;;12.90;74.30;;;;;;5009162;28;21061;-49
2023/04/16 05:12:23;;;;;;;12.53;9.97;;;12.80;75.30;;;;;;5003225;28;20898;-49
2023/04/16 05:14:48;;;;;;;11.87;9.90;;;13.00;74.90;;;;;;5004482;28;20233;-53
2023/04/16 05:17:14;;;;;;;10.80;9.70;;;12.90;74.70;;;;;;5001508;28;20686;-50
2023/04/16 05:19:39;;;;;;;10.37;8.97;;;12.80;75.50;;;;;;4999727;28;20202;-49
2023/04/16 05:22:05;;;;;;;12.40;10.13;;;12.90;75.20;;;;;;5003138;28;20254;-49
2023/04/16 05:24:31;;;;;;;13.43;10.17;;;12.80;75.30;;;;;;5001507;28;20708;-51
2023/04/16 05:26:56;;;;;;;11.17;9.80;;;12.80;75.50;;;;;;5006456;28;20236;-52
2023/04/16 05:29:22;;;;;;;12.93;10.43;;;12.80;76.00;;;;;;5013750;28;20685;-50
2023/04/16 05:31:48;;;;;;;12.43;10.53;;;12.70;76.20;;;;;;5003205;28;20289;-49
2023/04/16 05:34:13;;;;;;;13.70;11.17;;;12.80;76.00;;;;;;5001382;28;20696;-48
2023/04/16 05:36:39;;;;;;;14.17;10.47;;;12.90;75.70;;;;;;5005189;28;20225;-51
2023/04/16 05:39:05;;;;;;;14.03;11.47;;;12.90;75.60;;;;;;5002047;28;20230;-49
2023/04/16 05:41:30;;;;;;;13.00;10.80;;;13.00;75.60;;;;;;5001077;28;20236;-49
2023/04/16 05:43:56;;;;;;;12.70;11.30;;;13.10;75.60;;;;;;5003902;28;20561;-49
2023/04/16 05:46:21;;;;;;;16.23;13.20;;;13.20;74.70;;;;;;5004510;28;20633;-50
2023/04/16 05:48:47;;;;;;;19.47;13.00;;;13.30;74.50;;;;;;5002799;28;20226;-50
2023/04/16 05:51:12;;;;;;;15.67;11.60;;;13.10;73.90;;;;;;5003281;28;20190;-49
2023/04/16 05:53:38;;;;;;;14.80;12.77;;;13.10;74.30;;;;;;4999147;28;20249;-51
2023/04/16 05:56:04;;;;;;;14.27;12.37;;;13.10;74.40;;;;;;5003434;28;20198;-51
2023/04/16 05:58:29;;;;;;;16.57;12.97;;;13.20;74.60;;;;;;4997966;28;20210;-51
2023/04/16 06:00:55;;;;;;;20.93;14.13;;;13.20;74.00;;;;;;4999195;28;20313;-53
2023/04/16 06:03:21;;;;;;;16.53;13.23;;;13.30;73.70;;;;;;5000404;28;20202;-49
2023/04/16 06:05:46;;;;;;;15.00;12.57;;;13.30;73.60;;;;;;5003319;28;20277;-49
2023/04/16 06:08:12;;;;;;;16.57;13.90;;;13.20;74.30;;;;;;5010481;28;20202;-49
2023/04/16 06:10:38;;;;;;;17.27;13.13;;;13.20;74.20;;;;;;5006735;28;20670;-51
2023/04/16 06:13:03;;;;;;;18.83;14.50;;;13.20;74.30;;;;;;5002358;28;20561;-52
2023/04/16 06:15:29;;;;;;;21.57;16.07;;;13.20;74.70;;;;;;5007330;28;20499;-51
2023/04/16 06:17:55;;;;;;;19.47;15.40;;;13.30;74.40;;;;;;5005849;28;20230;-52
2023/04/16 06:20:20;;;;;;;19.70;15.67;;;13.20;74.40;;;;;;5001178;28;20691;-51
2023/04/16 06:22:46;;;;;;;20.70;16.43;;;13.30;74.40;;;;;;4999126;28;20200;-53
2023/04/16 06:25:11;;;;;;;19.63;16.50;;;13.40;74.00;;;;;;5009057;28;20284;-49
2023/04/16 06:27:37;;;;;;;21.50;15.97;;;13.40;73.60;;;;;;4996393;28;20630;-53
2023/04/16 06:30:03;;;;;;;22.47;17.10;;;13.40;74.00;;;;;;5008615;28;20197;-53
2023/04/16 06:32:29;;;;;;;22.40;17.20;;;13.40;74.00;;;;;;5006159;28;20676;-53
2023/04/16 06:34:55;;;;;;;21.50;16.33;;;13.40;73.80;;;;;;5008158;28;20281;-54
2023/04/16 06:37:21;;;;;;;20.03;16.47;;;13.40;73.40;;;;;;5009080;28;20544;-53
2023/04/16 06:39:46;;;;;;;22.83;18.83;;;13.50;73.40;;;;;;5006646;28;20517;-50
2023/04/16 06:42:12;;;;;;;20.10;15.30;;;13.60;73.00;;;;;;5008684;28;20657;-50
2023/04/16 06:44:37;;;;;;;22.07;17.60;;;13.40;73.10;;;;;;5005916;28;20685;-54
2023/04/16 06:47:03;;;;;;;18.73;16.23;;;13.40;73.60;;;;;;5010961;28;20209;-51
2023/04/16 06:49:28;;;;;;;21.53;17.30;;;13.50;73.30;;;;;;5001937;28;20843;-53
2023/04/16 06:51:54;;;;;;;21.10;17.30;;;13.50;72.80;;;;;;5002735;28;20203;-51
2023/04/16 06:54:20;;;;;;;21.50;16.80;;;13.40;73.30;;;;;;5011189;28;20242;-49
2023/04/16 06:56:45;;;;;;;21.73;15.97;;;13.30;73.90;;;;;;4999752;28;20194;-49
2023/04/16 06:59:11;;;;;;;21.97;17.57;;;13.30;73.80;;;;;;5009062;28;20203;-49
2023/04/16 07:01:36;;;;;;;21.77;17.30;;;13.30;73.80;;;;;;5001192;28;20221;-49
2023/04/16 07:04:02;;;;;;;21.70;15.90;;;13.30;73.90;;;;;;5009908;28;20204;-48
2023/04/16 07:06:28;;;;;;;19.07;15.97;;;13.20;74.30;;;;;;5010753;28;20855;-51
2023/04/16 07:08:54;;;;;;;17.00;14.40;;;13.20;74.80;;;;;;5006498;28;20456;-49
2023/04/16 07:11:20;;;;;;;20.83;17.30;;;13.20;74.10;;;;;;5009106;28;20201;-47
2023/04/16 07:13:45;;;;;;;19.47;16.50;;;13.20;74.00;;;;;;5008072;28;20251;-48
2023/04/16 07:16:11;;;;;;;19.70;15.87;;;13.20;74.50;;;;;;5008851;28;20519;-48
2023/04/16 07:18:36;;;;;;;21.97;16.27;;;13.20;74.20;;;;;;5005169;28;20194;-47
2023/04/16 07:21:03;;;;;;;17.87;14.63;;;13.10;74.50;;;;;;5005252;28;20241;-50
2023/04/16 07:23:29;;;;;;;18.80;15.50;;;13.20;74.50;;;;;;5001159;28;20193;-51
2023/04/16 07:25:55;;;;;;;19.50;17.40;;;13.20;74.40;;;;;;5000012;28;20846;-47
2023/04/16 07:28:21;;;;;;;20.00;16.40;;;13.40;73.80;;;;;;4992807;28;20446;-48
2023/04/16 07:30:46;;;;;;;20.10;15.33;;;13.40;73.20;;;;;;4993391;28;20460;-48
2023/04/16 07:33:12;;;;;;;21.53;16.47;;;13.40;73.80;;;;;;4992243;28;20217;-51
2023/04/16 07:35:37;;;;;;;20.07;15.13;;;13.40;73.70;;;;;;5004545;28;20619;-53
2023/04/16 07:38:03;;;;;;;23.23;16.97;;;13.50;72.90;;;;;;5002599;28;20222;-52
2023/04/16 07:40:29;;;;;;;20.47;16.60;;;13.50;72.70;;;;;;5000040;28;20242;-51
2023/04/16 07:42:55;;;;;;;20.30;15.57;;;13.30;73.40;;;;;;4994705;28;20190;-51
2023/04/16 07:45:20;;;;;;;22.43;16.90;;;13.30;73.90;;;;;;5003782;28;20194;-53
2023/04/16 07:47:46;;;;;;;20.93;15.90;;;13.20;73.80;;;;;;5001308;28;20459;-54
2023/04/16 07:50:12;;;;;;;20.30;15.53;;;13.30;73.70;;;;;;5002068;28;20192;-49
2023/04/16 07:52:40;;;;;;;19.33;16.20;;;13.10;74.50;;;;;;5003791;28;20569;-50
2023/04/16 07:55:09;;;;;;;21.03;16.00;;;13.00;75.10;;;;;;4996970;28;20233;-50
2023/04/16 07:57:34;;;;;;;18.93;15.13;;;13.10;75.10;;;;;;4998634;28;20449;-50
2023/04/16 08:00:06;;;;;;;23.23;16.00;;;13.10;74.80;;;;;;4999986;28;20846;-51
2023/04/16 08:02:32;;;;;;;19.10;16.00;;;13.30;74.60;;;;;;5007148;28;20225;-49
2023/04/16 08:04:58;;;;;;;21.33;17.93;;;13.30;74.40;;;;;;5008404;28;20932;-50
2023/04/16 08:07:23;;;;;;;17.33;15.17;;;13.30;74.90;;;;;;5006548;28;20453;-54
2023/04/16 08:09:52;;;;;;;19.57;15.70;;;13.30;74.80;;;;;;5010392;28;20205;-53
2023/04/16 08:12:19;;;;;;;19.50;15.50;;;13.40;74.20;;;;;;5002034;28;20197;-53
2023/04/16 08:14:45;;;;;;;20.27;14.80;;;13.30;74.00;;;;;;5010193;28;20456;-53
2023/04/16 08:17:12;;;;;;;17.13;14.07;;;13.30;74.40;;;;;;5009235;28;20517;-53
2023/04/16 08:19:38;;;;;;;18.43;14.57;;;13.20;74.60;;;;;;5007683;28;20591;-50
2023/04/16 08:22:03;;;;;;;17.70;14.70;;;13.10;75.30;;;;;;5004232;28;20979;-54
2023/04/16 08:24:29;;;;;;;19.53;15.33;;;13.20;74.50;;;;;;5006787;28;20194;-53
2023/04/16 08:26:54;;;;;;;19.77;15.67;;;13.20;75.10;;;;;;5005917;28;20202;-53
2023/04/16 08:29:20;;;;;;;18.87;15.10;;;13.20;75.50;;;;;;5011467;28;20190;-53
2023/04/16 08:31:46;;;;;;;21.20;14.80;;;13.20;75.70;;;;;;5011489;28;20194;-50
2023/04/16 08:34:13;;;;;;;21.37;15.17;;;13.30;75.30;;;;;;5010049;28;20198;-53
2023/04/16 08:36:39;;;;;;;20.63;15.57;;;13.40;74.90;;;;;;5010594;28;20198;-51
2023/04/16 08:39:05;;;;;;;17.53;14.70;;;13.40;75.20;;;;;;5008547;28;20489;-51
2023/04/16 08:41:33;;;;;;;18.70;14.53;;;13.40;75.10;;;;;;5011664;28;20488;-53
2023/04/16 08:44:03;;;;;;;19.47;15.63;;;13.50;74.50;;;;;;5010435;28;20190;-52
2023/04/16 08:46:30;;;;;;;16.73;13.70;;;13.50;74.70;;;;;;5010455;28;20437;-52
2023/04/16 08:48:59;;;;;;;19.10;15.07;;;13.70;74.10;;;;;;5005014;28;20453;-50
2023/04/16 08:51:32;;;;;;;16.27;13.63;;;13.70;73.80;;;;;;5007949;28;20441;-51
2023/04/16 08:54:10;;;;;;;16.30;14.43;;;13.70;73.80;;;;;;5009286;28;20488;-51
2023/04/16 08:56:37;;;;;;;14.83;12.90;;;13.60;73.90;;;;;;5004101;28;20449;-50
2023/04/16 08:59:06;;;;;;;17.10;13.60;;;13.50;73.50;;;;;;4997196;28;21014;-51
2023/04/16 09:01:32;;;;;;;15.90;13.13;;;13.40;74.00;;;;;;4996633;28;20485;-51
2023/04/16 09:04:00;;;;;;;17.13;13.67;;;13.20;74.70;;;;;;5005637;28;20460;-50
2023/04/16 09:06:27;;;;;;;15.37;13.30;;;13.40;74.60;;;;;;5005438;28;20433;-51
2023/04/16 09:08:53;;;;;;;16.17;13.03;;;13.30;75.60;;;;;;5004184;28;20452;-53
2023/04/16 09:11:19;;;;;;;15.00;13.40;;;13.30;75.10;;;;;;4997454;28;20506;-50
2023/04/16 09:13:46;;;;;;;15.47;12.33;;;13.40;75.10;;;;;;4999669;28;20960;-50
2023/04/16 09:16:13;;;;;;;16.87;12.90;;;13.60;74.40;;;;;;5006674;28;20661;-53
2023/04/16 09:18:39;;;;;;;13.53;12.13;;;13.40;74.50;;;;;;4993671;28;20449;-53
2023/04/16 09:21:06;;;;;;;14.40;12.63;;;13.40;74.60;;;;;;4998092;28;20485;-50
2023/04/16 09:23:32;;;;;;;16.10;13.00;;;13.30;74.50;;;;;;5002801;28;20452;-51
2023/04/16 09:25:59;;;;;;;14.30;12.27;;;13.40;74.70;;;;;;4999925;28;20449;-50
2023/04/16 09:28:52;;;;;;;16.57;12.70;;;13.40;74.00;;;;;;4999617;28;20569;-53
2023/04/16 09:31:18;;;;;;;14.23;11.37;;;13.30;74.50;;;;;;4997072;28;20440;-50
2023/04/16 09:34:00;;;;;;;14.87;11.87;;;13.40;74.80;;;;;;5004415;28;20827;-52
2023/04/16 09:36:26;;;;;;;14.23;11.77;;;13.30;74.90;;;;;;4993922;28;20190;-51
2023/04/16 09:38:53;;;;;;;14.53;11.33;;;13.40;75.30;;;;;;4997670;28;20448;-49
2023/04/16 09:41:24;;;;;;;19.30;11.80;;;13.40;75.00;;;;;;4997752;28;20489;-50
2023/04/16 09:43:57;;;;;;;16.43;13.07;;;13.50;74.20;;;;;;5001130;28;20824;-51
2023/04/16 09:46:36;;;;;;;15.00;12.73;;;13.60;73.70;;;;;;4997047;28;20469;-53
2023/04/16 09:49:09;;;;;;;16.80;12.77;;;13.50;74.80;;;;;;5001377;28;20445;-54
2023/04/16 09:51:42;;;;;;;15.57;12.70;;;13.60;74.30;;;;;;5001670;28;20452;-49
2023/04/16 09:54:08;;;;;;;15.90;12.30;;;13.60;74.00;;;;;;5007080;28;20477;-50
2023/04/16 09:56:44;;;;;;;16.17;13.33;;;13.60;74.40;;;;;;5010889;28;20483;-51
2023/04/16 09:59:23;;;;;;;20.10;13.17;;;13.60;74.70;;;;;;5008242;28;20201;-51
2023/04/16 10:01:49;;;;;;;16.27;12.40;;;13.80;73.80;;;;;;5006502;28;20492;-50
2023/04/16 10:04:15;;;;;;;17.47;14.33;;;13.60;74.20;;;;;;5004015;28;20445;-49
2023/04/16 10:06:41;;;;;;;16.80;13.40;;;13.70;74.10;;;;;;5010019;28;20445;-51
2023/04/16 10:09:08;;;;;;;14.73;13.00;;;13.90;73.70;;;;;;5011459;28;20524;-50
2023/04/16 10:11:34;;;;;;;14.93;13.20;;;13.90;73.30;;;;;;5006633;28;21027;-51
2023/04/16 10:14:00;;;;;;;16.87;13.60;;;13.70;73.30;;;;;;5007181;28;20447;-49
2023/04/16 10:16:26;;;;;;;15.73;13.30;;;13.80;73.50;;;;;;5006735;28;20445;-53
2023/04/16 10:18:53;;;;;;;15.77;12.70;;;13.80;73.60;;;;;;5005411;28;20281;-50
2023/04/16 10:21:18;;;;;;;15.20;12.87;;;13.80;73.50;;;;;;5010032;28;20492;-50
2023/04/16 10:23:48;;;;;;;14.87;12.97;;;13.80;73.30;;;;;;5007322;28;20476;-50
2023/04/16 10:26:14;;;;;;;15.90;12.87;;;13.80;73.30;;;;;;5005007;28;20670;-51
2023/04/16 10:28:40;;;;;;;14.67;12.60;;;13.80;73.00;;;;;;5004805;28;20507;-49
2023/04/16 10:31:07;;;;;;;17.63;13.60;;;13.80;73.20;;;;;;5007651;28;20248;-50
2023/04/16 10:33:39;;;;;;;15.67;11.90;;;13.80;73.30;;;;;;5003397;28;20445;-51
2023/04/16 10:36:16;;;;;;;15.23;12.40;;;13.80;73.30;;;;;;5005468;28;20452;-49
2023/04/16 10:38:48;;;;;;;14.90;12.10;;;13.90;72.90;;;;;;4997758;28;20453;-51
2023/04/16 10:41:14;;;;;;;14.33;11.30;;;13.70;72.80;;;;;;4994648;28;20539;-53
2023/04/16 10:43:43;;;;;;;17.07;13.27;;;13.70;73.20;;;;;;4995340;28;20826;-47
2023/04/16 10:46:22;;;;;;;15.47;12.40;;;13.80;73.40;;;;;;4996642;28;20277;-49
2023/04/16 10:48:50;;;;;;;16.37;12.60;;;13.70;73.60;;;;;;5000859;28;20449;-47
2023/04/16 10:51:34;;;;;;;15.17;13.00;;;13.70;73.80;;;;;;5000732;28;20449;-47
2023/04/16 10:54:13;;;;;;;16.53;12.40;;;13.60;74.70;;;;;;4997449;28;20495;-51
2023/04/16 10:56:39;;;;;;;16.80;13.47;;;13.70;74.90;;;;;;5003759;28;20952;-51
2023/04/16 10:59:09;;;;;;;17.70;13.10;;;13.80;74.30;;;;;;4997154;28;20548;-47
2023/04/16 11:01:43;;;;;;;14.67;12.30;;;13.90;73.40;;;;;;5002632;28;20493;-51
2023/04/16 11:04:20;;;;;;;14.73;12.20;;;13.90;73.50;;;;;;5007269;28;20441;-47
2023/04/16 11:07:05;;;;;;;15.67;12.30;;;13.80;74.00;;;;;;5006558;28;20803;-47
2023/04/16 11:09:58;;;;;;;15.20;12.30;;;13.70;74.60;;;;;;5008459;28;20449;-47
2023/04/16 11:12:31;;;;;;;14.90;11.20;;;13.80;74.70;;;;;;5006744;28;20460;-47
2023/04/16 11:15:04;;;;;;;18.93;11.83;;;14.00;74.10;;;;;;5008516;28;20437;-46
2023/04/16 11:17:40;;;;;;;15.10;11.10;;;14.10;73.50;;;;;;5002522;28;20523;-48
2023/04/16 11:20:08;;;;;;;13.10;10.97;;;14.10;73.40;;;;;;5008490;28;20461;-47
2023/04/16 11:22:37;;;;;;;15.43;10.47;;;14.20;73.30;;;;;;5006524;28;20503;-47
2023/04/16 11:25:03;;;;;;;13.57;11.30;;;14.20;72.80;;;;;;4998360;28;20446;-48
2023/04/16 11:27:31;;;;;;;11.30;10.00;;;14.10;73.10;;;;;;4998569;28;20448;-48
2023/04/16 11:30:03;;;;;;;12.37;9.23;;;14.10;73.40;;;;;;4998246;28;20397;-51
2023/04/16 11:32:32;;;;;;;11.67;8.83;;;14.10;73.10;;;;;;4999216;28;20506;-49
2023/04/16 11:35:02;;;;;;;11.30;9.07;;;14.00;73.30;;;;;;5006796;28;20436;-48
2023/04/16 11:37:36;;;;;;;11.37;9.70;;;13.60;73.90;;;;;;4994900;28;20502;-49
2023/04/16 11:40:05;;;;;;;12.40;9.23;;;13.70;74.50;;;;;;5008242;28;20454;-47
2023/04/16 11:42:32;;;;;;;11.77;9.30;;;13.80;74.50;;;;;;5005650;28;20449;-49
2023/04/16 11:45:01;;;;;;;12.10;8.63;;;13.90;74.20;;;;;;5006974;28;20452;-49
2023/04/16 11:47:30;;;;;;;9.30;8.10;;;14.00;73.90;;;;;;5009390;28;20497;-48
2023/04/16 11:49:55;;;;;;;8.80;7.00;;;14.00;73.00;;;;;;5006775;28;20457;-52
2023/04/16 11:52:31;;;;;;;9.33;7.97;;;14.00;73.30;;;;;;5008859;28;20467;-47
2023/04/16 11:54:58;;;;;;;9.83;8.50;;;14.00;73.80;;;;;;5010715;28;20248;-49
2023/04/16 11:57:32;;;;;;;13.13;8.43;;;14.00;73.30;;;;;;5005879;28;20967;-49
2023/04/16 11:59:59;;;;;;;8.43;7.43;;;14.00;73.10;;;;;;5005744;28;20452;-47
2023/04/16 12:02:57;;;;;;;8.90;8.00;;;14.10;73.10;;;;;;5004704;28;20492;-49
2023/04/16 12:05:30;;;;;;;11.00;6.77;;;14.20;73.40;;;;;;4986189;28;20522;-47
2023/04/16 12:08:00;;;;;;;7.17;6.47;;;14.10;73.30;;;;;;5006166;28;20461;-50
2023/04/16 12:10:26;;;;;;;8.87;7.00;;;13.90;73.70;;;;;;5001099;28;22330;-52
2023/04/16 12:12:52;;;;;;;9.80;7.53;;;13.90;74.10;;;;;;5002817;28;20472;-51
2023/04/16 12:15:17;;;;;;;7.20;6.50;;;14.10;74.10;;;;;;5005895;28;20469;-51
2023/04/16 12:17:43;;;;;;;8.30;7.43;;;14.10;74.50;;;;;;5007752;28;20195;-52
2023/04/16 12:20:11;;;;;;;9.53;7.63;;;14.10;74.50;;;;;;5008712;28;20198;-52
2023/04/16 12:22:43;;;;;;;7.03;6.33;;;14.10;74.50;;;;;;5011082;28;20194;-53
2023/04/16 12:25:16;;;;;;;7.20;6.30;;;14.10;75.10;;;;;;5010908;28;20460;-55
2023/04/16 12:27:45;;;;;;;11.60;7.40;;;14.20;74.60;;;;;;5007682;28;20456;-53
2023/04/16 12:30:11;;;;;;;8.03;6.90;;;14.20;74.60;;;;;;5007097;28;20940;-50
2023/04/16 12:32:37;;;;;;;7.40;6.00;;;14.10;74.60;;;;;;5010190;28;20453;-51
2023/04/16 12:35:03;;;;;;;9.33;6.37;;;14.20;74.10;;;;;;4997255;28;20445;-51